createdAt,value
2019-02-08T00:00:40.634Z,-3.40
2019-02-08T00:03:08.329Z,-3.50
2019-02-08T00:05:36.569Z,-3.50
2019-02-08T00:08:04.574Z,-3.50
2019-02-08T00:10:32.134Z,-3.50
2019-02-08T00:13:00.030Z,-3.50
2019-02-08T00:15:27.835Z,-3.50
2019-02-08T00:17:55.353Z,-3.70
2019-02-08T00:20:23.086Z,-3.60
2019-02-08T00:22:51.027Z,-3.60
2019-02-08T00:25:18.897Z,-3.60
2019-02-08T00:27:46.654Z,-3.60
2019-02-08T00:30:18.701Z,-3.60
2019-02-08T00:32:46.484Z,-3.60
2019-02-08T00:35:14.138Z,-3.70
2019-02-08T00:37:41.997Z,-3.70
2019-02-08T00:40:12.025Z,-3.70
2019-02-08T00:42:40.474Z,-3.80
2019-02-08T00:45:10.855Z,-3.80
2019-02-08T00:47:38.420Z,-3.90
2019-02-08T00:50:10.247Z,-4.00
2019-02-08T00:52:37.901Z,-4.00
2019-02-08T00:55:05.816Z,-4.10
2019-02-08T00:57:33.265Z,-4.10
2019-02-08T01:00:00.789Z,-4.20
2019-02-08T01:02:29.037Z,-4.20
2019-02-08T01:04:57.001Z,-4.20
2019-02-08T01:07:24.669Z,-4.20
2019-02-08T01:09:52.310Z,-4.30
2019-02-08T01:12:20.113Z,-4.30
2019-02-08T01:14:47.782Z,-4.30
2019-02-08T01:17:15.476Z,-4.30
2019-02-08T01:19:43.045Z,-4.30
2019-02-08T01:22:17.910Z,-4.30
2019-02-08T01:24:45.374Z,-4.30
2019-02-08T01:27:13.143Z,-4.30
2019-02-08T01:29:41.031Z,-4.30
2019-02-08T01:32:08.780Z,-4.30
2019-02-08T01:34:36.762Z,-4.30
2019-02-08T01:37:04.428Z,-4.20
2019-02-08T01:39:32.075Z,-4.20
2019-02-08T01:41:59.839Z,-4.30
2019-02-08T01:44:27.482Z,-4.30
2019-02-08T01:46:55.446Z,-4.30
2019-02-08T01:49:23.331Z,-4.30
2019-02-08T01:51:51.151Z,-4.30
2019-02-08T01:54:18.829Z,-4.30
2019-02-08T01:56:46.665Z,-4.30
2019-02-08T01:59:14.202Z,-4.30
2019-02-08T02:01:42.063Z,-4.30
2019-02-08T02:04:10.305Z,-4.40
2019-02-08T02:06:38.150Z,-4.30
2019-02-08T02:09:07.531Z,-4.30
2019-02-08T02:11:35.573Z,-4.50
2019-02-08T02:14:04.291Z,-4.30
2019-02-08T02:16:32.007Z,-4.40
2019-02-08T02:18:59.589Z,-4.30
2019-02-08T02:21:27.868Z,-4.30
2019-02-08T02:23:56.545Z,-4.30
2019-02-08T02:26:24.166Z,-4.20
2019-02-08T02:28:53.056Z,-4.10
2019-02-08T02:31:20.793Z,-4.00
2019-02-08T02:33:48.516Z,-4.00
2019-02-08T02:36:16.285Z,-3.90
2019-02-08T02:38:43.871Z,-3.90
2019-02-08T02:41:11.474Z,-4.00
2019-02-08T02:43:39.104Z,-4.00
2019-02-08T02:46:06.537Z,-4.10
2019-02-08T02:48:34.362Z,-4.10
2019-02-08T02:51:02.290Z,-4.10
2019-02-08T02:53:29.873Z,-4.10
2019-02-08T02:55:57.532Z,-4.00
2019-02-08T02:58:25.285Z,-4.00
2019-02-08T03:00:53.102Z,-4.00
2019-02-08T03:03:20.582Z,-4.00
2019-02-08T03:05:48.494Z,-4.00
2019-02-08T03:08:16.599Z,-4.00
2019-02-08T03:10:44.704Z,-3.90
2019-02-08T03:13:12.403Z,-3.90
2019-02-08T03:15:40.662Z,-3.90
2019-02-08T03:18:08.402Z,-3.90
2019-02-08T03:20:38.157Z,-3.90
2019-02-08T03:23:06.307Z,-3.80
2019-02-08T03:25:35.118Z,-3.80
2019-02-08T03:28:03.092Z,-3.80
2019-02-08T03:30:35.616Z,-3.70
2019-02-08T03:33:03.622Z,-3.70
2019-02-08T03:35:31.790Z,-3.70
2019-02-08T03:37:59.566Z,-3.60
2019-02-08T03:40:27.484Z,-3.70
2019-02-08T03:42:55.706Z,-3.80
2019-02-08T03:45:24.295Z,-3.80
2019-02-08T03:47:52.131Z,-3.80
2019-02-08T03:50:20.218Z,-3.80
2019-02-08T03:52:48.164Z,-3.80
2019-02-08T03:55:18.043Z,-3.80
2019-02-08T03:57:45.944Z,-3.70
2019-02-08T04:00:36.621Z,-3.60
2019-02-08T04:03:04.509Z,-3.60
2019-02-08T04:05:32.212Z,-3.50
2019-02-08T04:07:59.829Z,-3.40
2019-02-08T04:10:28.243Z,-3.20
2019-02-08T04:12:56.010Z,-3.10
2019-02-08T04:15:24.841Z,-3.00
2019-02-08T04:17:53.962Z,-2.90
2019-02-08T04:20:25.340Z,-2.80
2019-02-08T04:22:53.963Z,-2.70
2019-02-08T04:25:21.790Z,-2.50
2019-02-08T04:27:49.482Z,-2.40
2019-02-08T04:30:25.924Z,-2.30
2019-02-08T04:32:53.708Z,-2.20
2019-02-08T04:35:21.420Z,-2.10
2019-02-08T04:37:49.112Z,-1.80
2019-02-08T04:40:18.582Z,-1.90
2019-02-08T04:42:47.222Z,-1.70
2019-02-08T04:45:15.532Z,-1.70
2019-02-08T04:47:44.364Z,-1.50
2019-02-08T04:50:14.828Z,-1.50
2019-02-08T04:52:42.681Z,-1.40
2019-02-08T04:55:10.410Z,-1.40
2019-02-08T04:57:39.552Z,-1.40
2019-02-08T05:00:18.326Z,-1.20
2019-02-08T05:02:46.557Z,-1.10
2019-02-08T05:05:14.267Z,-1.10
2019-02-08T05:07:42.745Z,-1.00
2019-02-08T05:10:12.456Z,-0.90
2019-02-08T05:12:39.956Z,-0.80
2019-02-08T05:15:08.112Z,-0.70
2019-02-08T05:17:35.711Z,-0.60
2019-02-08T05:20:04.662Z,-0.60
2019-02-08T05:22:32.035Z,-0.50
2019-02-08T05:24:59.499Z,-0.50
2019-02-08T05:27:26.977Z,-0.40
2019-02-08T05:29:54.354Z,-0.40
2019-02-08T05:32:21.790Z,-0.30
2019-02-08T05:34:49.267Z,-0.20
2019-02-08T05:37:17.483Z,-0.10
2019-02-08T05:39:45.640Z,-0.10
2019-02-08T05:42:13.039Z,0.00
2019-02-08T05:44:40.562Z,0.00
2019-02-08T05:47:08.228Z,0.00
2019-02-08T05:49:35.821Z,0.10
2019-02-08T05:52:03.769Z,0.10
2019-02-08T05:54:31.178Z,0.10
2019-02-08T05:56:58.602Z,0.20
2019-02-08T05:59:26.194Z,0.20
2019-02-08T06:01:53.781Z,0.30
2019-02-08T06:04:21.351Z,0.40
2019-02-08T06:06:49.002Z,0.50
2019-02-08T06:09:17.207Z,0.50
2019-02-08T06:11:44.692Z,0.60
2019-02-08T06:14:12.483Z,0.60
2019-02-08T06:16:40.039Z,0.70
2019-02-08T06:19:07.595Z,0.70
2019-02-08T06:21:35.150Z,0.80
2019-02-08T06:24:02.804Z,0.90
2019-02-08T06:26:30.461Z,0.90
2019-02-08T06:28:58.019Z,1.00
2019-02-08T06:31:25.495Z,1.10
2019-02-08T06:33:53.018Z,1.20
2019-02-08T06:36:20.470Z,1.30
2019-02-08T06:38:48.085Z,1.40
2019-02-08T06:41:15.427Z,1.40
2019-02-08T06:43:43.406Z,1.70
2019-02-08T06:46:10.877Z,1.70
2019-02-08T06:48:38.686Z,1.80
2019-02-08T06:51:06.569Z,1.90
2019-02-08T06:53:34.355Z,2.00
2019-02-08T06:56:01.923Z,2.10
2019-02-08T06:58:44.044Z,2.10
2019-02-08T07:01:29.776Z,2.20
2019-02-08T07:04:21.490Z,2.20
2019-02-08T07:07:08.151Z,2.30
2019-02-08T07:09:48.710Z,2.30
2019-02-08T07:12:35.943Z,2.40
2019-02-08T07:15:32.157Z,2.40
2019-02-08T07:18:31.348Z,2.50
2019-02-08T07:21:21.383Z,2.60
2019-02-08T07:24:18.323Z,2.70
2019-02-08T07:27:01.724Z,3.00
2019-02-08T07:29:42.298Z,3.00
2019-02-08T07:32:47.657Z,3.10
2019-02-08T07:35:31.209Z,3.30
2019-02-08T07:38:22.195Z,3.50
2019-02-08T07:41:15.715Z,3.60
2019-02-08T07:44:12.075Z,3.70
2019-02-08T07:47:01.185Z,3.80
2019-02-08T07:49:53.751Z,3.90
2019-02-08T07:52:31.273Z,4.00
2019-02-08T07:55:09.416Z,4.00
2019-02-08T07:57:54.178Z,4.00
2019-02-08T08:00:49.503Z,4.20
2019-02-08T08:03:35.142Z,4.30
2019-02-08T08:06:35.303Z,4.40
2019-02-08T08:09:28.269Z,4.50
2019-02-08T08:12:18.578Z,4.70
2019-02-08T08:15:07.124Z,4.70
2019-02-08T08:17:52.982Z,4.80
2019-02-08T08:20:46.679Z,5.00
2019-02-08T08:23:38.917Z,5.00
2019-02-08T08:26:21.454Z,5.20
2019-02-08T08:29:17.384Z,5.30
2019-02-08T08:32:28.929Z,5.40
2019-02-08T08:35:23.181Z,5.60
2019-02-08T08:39:07.521Z,5.70
2019-02-08T08:43:01.213Z,5.80
2019-02-08T08:46:31.772Z,5.80
2019-02-08T08:50:17.803Z,5.70
2019-02-08T08:53:55.608Z,5.70
2019-02-08T08:57:14.953Z,5.70
2019-02-08T09:00:21.408Z,5.70
2019-02-08T09:03:22.383Z,5.70
2019-02-08T09:06:38.199Z,5.70
2019-02-08T09:09:47.542Z,5.90
2019-02-08T09:13:14.552Z,6.10
2019-02-08T09:17:02.347Z,6.20
2019-02-08T09:20:40.499Z,6.30
2019-02-08T09:23:52.843Z,6.40
2019-02-08T09:27:08.004Z,6.60
2019-02-08T09:30:25.298Z,7.00
2019-02-08T09:33:32.721Z,7.60
2019-02-08T09:37:02.467Z,8.20
2019-02-08T09:40:08.084Z,8.40
2019-02-08T09:43:26.192Z,8.40
2019-02-08T09:46:49.314Z,8.30
2019-02-08T09:50:16.563Z,8.30
2019-02-08T09:53:56.285Z,8.30
2019-02-08T09:57:35.719Z,8.10
2019-02-08T10:01:00.606Z,8.00
2019-02-08T10:04:18.816Z,7.80
2019-02-08T10:07:45.456Z,7.70
2019-02-08T10:11:09.027Z,7.70
2019-02-08T10:14:26.585Z,8.00
2019-02-08T10:17:41.749Z,8.30
2019-02-08T10:20:54.182Z,8.40
2019-02-08T10:24:18.361Z,8.40
2019-02-08T10:27:53.027Z,8.40
2019-02-08T10:31:14.036Z,8.60
2019-02-08T10:34:57.073Z,8.70
2019-02-08T10:38:17.873Z,8.70
2019-02-08T10:41:40.348Z,8.60
2019-02-08T10:45:12.786Z,8.40
2019-02-08T10:48:35.790Z,8.40
2019-02-08T10:52:13.441Z,8.60
2019-02-08T10:55:29.147Z,8.80
2019-02-08T10:58:57.567Z,9.20
2019-02-08T11:02:32.401Z,9.50
2019-02-08T11:06:21.892Z,9.80
2019-02-08T11:10:08.805Z,10.30
2019-02-08T11:13:23.616Z,10.60
2019-02-08T11:17:00.708Z,10.70
2019-02-08T11:19:27.006Z,10.80
2019-02-08T11:21:54.557Z,11.20
2019-02-08T11:24:26.217Z,11.30
2019-02-08T11:26:56.213Z,11.50
2019-02-08T11:29:24.771Z,11.70
2019-02-08T11:31:52.419Z,11.90
2019-02-08T11:34:20.526Z,12.20
2019-02-08T11:36:48.298Z,12.20
2019-02-08T11:39:17.936Z,12.30
2019-02-08T11:41:46.808Z,12.20
2019-02-08T11:44:15.102Z,12.10
2019-02-08T11:46:43.985Z,12.00
2019-02-08T11:49:11.949Z,11.80
2019-02-08T11:51:39.530Z,11.70
2019-02-08T11:54:07.105Z,11.60
2019-02-08T11:56:34.665Z,11.60
2019-02-08T11:59:02.328Z,11.80
2019-02-08T12:01:34.329Z,12.30
2019-02-08T12:04:01.871Z,13.00
2019-02-08T12:06:30.286Z,13.50
2019-02-08T12:08:57.725Z,13.80
2019-02-08T12:11:25.152Z,13.70
2019-02-08T12:13:52.640Z,13.70
2019-02-08T12:16:20.000Z,13.80
2019-02-08T12:18:47.343Z,13.90
2019-02-08T12:21:15.746Z,14.30
2019-02-08T12:23:43.080Z,15.00
2019-02-08T12:26:10.537Z,16.00
2019-02-08T12:28:38.005Z,16.70
2019-02-08T12:31:05.819Z,17.30
2019-02-08T12:33:33.178Z,17.50
2019-02-08T12:36:01.390Z,17.70
2019-02-08T12:38:28.811Z,19.20
2019-02-08T12:40:56.239Z,20.70
2019-02-08T12:43:23.765Z,22.10
2019-02-08T12:45:51.281Z,23.10
2019-02-08T12:48:18.745Z,23.90
2019-02-08T12:50:46.280Z,24.50
2019-02-08T12:53:13.667Z,24.40
2019-02-08T12:55:42.735Z,24.40
2019-02-08T12:58:10.196Z,24.70
2019-02-08T13:00:37.797Z,25.30
2019-02-08T13:03:05.360Z,25.90
2019-02-08T13:05:33.674Z,26.40
2019-02-08T13:08:02.076Z,27.00
2019-02-08T13:10:30.048Z,27.80
2019-02-08T13:12:58.315Z,28.70
2019-02-08T13:15:25.993Z,29.20
2019-02-08T13:17:54.161Z,29.40
2019-02-08T13:20:21.720Z,29.80
2019-02-08T13:22:49.417Z,30.40
2019-02-08T13:25:17.721Z,30.90
2019-02-08T13:27:45.446Z,31.30
2019-02-08T13:30:20.377Z,31.70
2019-02-08T13:32:48.633Z,31.80
2019-02-08T13:35:16.560Z,31.40
2019-02-08T13:37:43.992Z,30.70
2019-02-08T13:40:12.884Z,30.30
2019-02-08T13:42:40.525Z,30.50
2019-02-08T13:45:09.957Z,30.50
2019-02-08T13:47:37.410Z,30.90
2019-02-08T13:50:22.922Z,31.10
2019-02-08T13:52:50.753Z,31.30
2019-02-08T13:55:19.823Z,31.30
2019-02-08T13:57:47.448Z,31.20
2019-02-08T14:00:24.697Z,31.10
2019-02-08T14:02:52.285Z,31.10
2019-02-08T14:05:19.890Z,30.60
2019-02-08T14:07:47.452Z,30.00
2019-02-08T14:10:16.173Z,29.60
2019-02-08T14:12:44.090Z,29.40
2019-02-08T14:15:11.788Z,29.20
2019-02-08T14:17:39.368Z,28.80
2019-02-08T14:20:10.115Z,28.60
2019-02-08T14:22:37.757Z,28.20
2019-02-08T14:25:07.316Z,27.90
2019-02-08T14:27:34.924Z,27.30
2019-02-08T14:30:05.866Z,27.00
2019-02-08T14:32:33.461Z,26.80
2019-02-08T14:35:01.048Z,26.60
2019-02-08T14:37:28.872Z,26.20
2019-02-08T14:39:56.360Z,25.90
2019-02-08T14:42:23.687Z,25.60
2019-02-08T14:44:52.429Z,24.90
2019-02-08T14:47:19.928Z,24.10
2019-02-08T14:49:47.612Z,23.20
2019-02-08T14:52:15.519Z,22.30
2019-02-08T14:54:43.071Z,21.70
2019-02-08T14:57:16.553Z,21.10
2019-02-08T14:59:43.240Z,20.00
2019-02-08T15:02:10.773Z,18.70
2019-02-08T15:04:39.789Z,17.40
2019-02-08T15:07:09.637Z,16.30
2019-02-08T15:09:37.091Z,15.30
2019-02-08T15:12:04.837Z,14.40
2019-02-08T15:14:33.636Z,13.70
2019-02-08T15:17:01.139Z,13.10
2019-02-08T15:19:29.444Z,12.40
2019-02-08T15:21:57.127Z,11.80
2019-02-08T15:24:25.524Z,11.20
2019-02-08T15:26:53.054Z,10.80
2019-02-08T15:29:20.430Z,10.30
2019-02-08T15:31:47.971Z,9.90
2019-02-08T15:34:15.866Z,9.60
2019-02-08T15:36:49.170Z,9.20
2019-02-08T15:39:14.978Z,8.90
2019-02-08T15:41:45.682Z,8.50
2019-02-08T15:44:15.638Z,8.20
2019-02-08T15:46:45.530Z,7.80
2019-02-08T15:49:17.334Z,7.50
2019-02-08T15:51:53.509Z,7.20
2019-02-08T15:54:22.610Z,6.90
2019-02-08T15:56:55.369Z,6.60
2019-02-08T15:59:24.855Z,6.30
2019-02-08T16:01:53.458Z,6.10
2019-02-08T16:04:21.012Z,5.90
2019-02-08T16:06:49.607Z,5.70
2019-02-08T16:09:16.973Z,5.40
2019-02-08T16:11:45.473Z,5.20
2019-02-08T16:14:13.046Z,5.00
2019-02-08T16:16:41.206Z,4.80
2019-02-08T16:19:09.187Z,4.80
2019-02-08T16:21:36.783Z,4.40
2019-02-08T16:24:05.171Z,4.20
2019-02-08T16:26:33.511Z,4.00
2019-02-08T16:29:03.079Z,3.90
2019-02-08T16:31:31.800Z,3.60
2019-02-08T16:33:59.284Z,3.50
2019-02-08T16:36:26.982Z,3.40
2019-02-08T16:38:54.651Z,3.20
2019-02-08T16:41:22.216Z,3.10
2019-02-08T16:43:50.308Z,3.00
2019-02-08T16:46:18.142Z,2.90
2019-02-08T16:48:46.032Z,2.70
2019-02-08T16:51:13.594Z,2.60
2019-02-08T16:53:41.998Z,2.50
2019-02-08T16:56:10.752Z,2.40
2019-02-08T16:58:43.539Z,2.40
2019-02-08T17:01:20.381Z,2.20
2019-02-08T17:03:55.389Z,2.10
2019-02-08T17:06:23.912Z,2.00
2019-02-08T17:08:51.595Z,1.90
2019-02-08T17:11:25.430Z,1.80
2019-02-08T17:13:55.002Z,1.80
2019-02-08T17:16:22.595Z,1.60
2019-02-08T17:18:50.056Z,1.50
2019-02-08T17:21:17.895Z,1.40
2019-02-08T17:23:45.750Z,1.30
2019-02-08T17:26:13.487Z,1.20
2019-02-08T17:28:40.835Z,1.10
2019-02-08T17:31:09.215Z,1.10
2019-02-08T17:33:36.558Z,1.10
2019-02-08T17:36:04.219Z,1.00
2019-02-08T17:38:32.145Z,0.90
2019-02-08T17:41:00.463Z,0.90
2019-02-08T17:43:28.914Z,0.80
2019-02-08T17:45:57.813Z,0.70
2019-02-08T17:48:25.777Z,0.70
2019-02-08T17:50:53.671Z,0.60
2019-02-08T17:53:24.257Z,0.50
2019-02-08T17:55:53.636Z,0.50
2019-02-08T17:58:21.787Z,0.40
2019-02-08T18:00:54.290Z,0.20
2019-02-08T18:03:22.197Z,0.20
2019-02-08T18:05:50.392Z,0.10
2019-02-08T18:08:18.565Z,0.10
2019-02-08T18:10:46.469Z,-0.10
2019-02-08T18:13:16.453Z,-0.10
2019-02-08T18:15:45.404Z,-0.10
2019-02-08T18:18:19.470Z,-0.20
2019-02-08T18:20:51.996Z,-0.30
2019-02-08T18:23:19.921Z,-0.40
2019-02-08T18:25:47.978Z,-0.40
2019-02-08T18:28:16.844Z,-0.50
2019-02-08T18:30:45.648Z,-0.50
2019-02-08T18:33:15.020Z,-0.50
2019-02-08T18:35:43.187Z,-0.60
2019-02-08T18:38:10.881Z,-0.60
2019-02-08T18:40:39.665Z,-0.60
2019-02-08T18:43:07.744Z,-0.60
2019-02-08T18:45:36.326Z,-0.60
2019-02-08T18:48:05.349Z,-0.70
2019-02-08T18:50:40.117Z,-0.70
2019-02-08T18:53:09.537Z,-0.80
2019-02-08T18:55:37.460Z,-0.90
2019-02-08T18:58:05.633Z,-0.90
2019-02-08T19:00:40.128Z,-0.90
2019-02-08T19:03:09.063Z,-1.00
2019-02-08T19:05:37.599Z,-1.00
2019-02-08T19:08:15.895Z,-1.00
2019-02-08T19:11:31.495Z,-1.10
2019-02-08T19:14:06.676Z,-1.10
2019-02-08T19:16:38.959Z,-1.10
2019-02-08T19:22:32.674Z,-1.20
2019-02-08T19:28:38.073Z,-1.30
2019-02-08T19:32:01.183Z,-1.20
2019-02-08T19:34:29.225Z,-1.10
2019-02-08T19:36:56.899Z,-1.20
2019-02-08T19:39:24.972Z,-1.30
2019-02-08T19:41:52.742Z,-1.30
2019-02-08T19:44:21.010Z,-1.30
2019-02-08T19:46:49.576Z,-1.40
2019-02-08T19:49:19.104Z,-1.40
2019-02-08T19:51:52.571Z,-1.50
2019-02-08T19:54:20.119Z,-1.50
2019-02-08T19:57:39.771Z,-1.60
2019-02-08T20:00:13.001Z,-1.60
2019-02-08T20:02:42.679Z,-1.70
2019-02-08T20:05:15.937Z,-1.80
2019-02-08T20:07:44.086Z,-1.90
2019-02-08T20:10:16.951Z,-1.90
2019-02-08T20:12:45.434Z,-1.90
2019-02-08T20:15:15.966Z,-1.90
2019-02-08T20:18:13.970Z,-2.00
2019-02-08T20:20:43.503Z,-2.00
2019-02-08T20:23:11.936Z,-2.00
2019-02-08T20:25:40.123Z,-2.10
2019-02-08T20:28:08.517Z,-2.10
2019-02-08T20:30:36.573Z,-2.10
2019-02-08T20:33:10.131Z,-2.00
2019-02-08T20:35:41.160Z,-2.10
2019-02-08T20:38:09.771Z,-2.20
2019-02-08T20:40:49.926Z,-2.20
2019-02-08T20:43:17.469Z,-2.20
2019-02-08T20:45:46.039Z,-2.30
2019-02-08T20:48:17.288Z,-2.30
2019-02-08T20:50:45.231Z,-2.20
2019-02-08T20:53:14.257Z,-2.40
2019-02-08T20:55:42.072Z,-2.30
2019-02-08T20:58:11.571Z,-2.30
2019-02-08T21:00:43.370Z,-2.30
2019-02-08T21:03:13.285Z,-2.20
2019-02-08T21:05:42.982Z,-2.20
2019-02-08T21:08:11.498Z,-2.20
2019-02-08T21:10:40.050Z,-2.20
2019-02-08T21:13:09.924Z,-2.20
2019-02-08T21:15:37.870Z,-2.30
2019-02-08T21:18:06.539Z,-2.20
2019-02-08T21:20:34.210Z,-2.20
2019-02-08T21:23:02.079Z,-2.20
2019-02-08T21:25:30.327Z,-2.10
2019-02-08T21:27:58.182Z,-2.10
2019-02-08T21:30:26.186Z,-2.00
2019-02-08T21:32:54.016Z,-2.00
2019-02-08T21:35:21.747Z,-2.00
2019-02-08T21:37:49.480Z,-1.90
2019-02-08T21:40:22.190Z,-1.80
2019-02-08T21:42:50.265Z,-1.80
2019-02-08T21:45:29.775Z,-1.70
2019-02-08T21:47:57.456Z,-1.60
2019-02-08T21:50:25.320Z,-1.60
2019-02-08T21:52:53.403Z,-1.70
2019-02-08T21:55:23.274Z,-1.80
2019-02-08T21:57:52.886Z,-2.00
2019-02-08T22:00:23.689Z,-2.10
2019-02-08T22:02:52.915Z,-2.10
2019-02-08T22:05:28.216Z,-2.20
2019-02-08T22:07:56.704Z,-2.20
2019-02-08T22:10:24.870Z,-2.30
2019-02-08T22:12:52.395Z,-2.30
2019-02-08T22:15:27.438Z,-2.40
2019-02-08T22:17:55.101Z,-2.40
2019-02-08T22:20:24.658Z,-2.50
2019-02-08T22:22:52.981Z,-2.50
2019-02-08T22:25:22.387Z,-2.60
2019-02-08T22:27:50.093Z,-2.60
2019-02-08T22:30:22.542Z,-2.70
2019-02-08T22:32:52.584Z,-2.70
2019-02-08T22:35:22.631Z,-2.80
2019-02-08T22:37:50.524Z,-2.80
2019-02-08T22:40:19.081Z,-2.80
2019-02-08T22:42:46.887Z,-2.80
2019-02-08T22:45:31.278Z,-2.80
2019-02-08T22:47:59.121Z,-2.90
2019-02-08T22:50:27.794Z,-2.90
2019-02-08T22:52:55.713Z,-2.90
2019-02-08T22:55:25.873Z,-3.00
2019-02-08T22:57:54.350Z,-3.00
2019-02-08T23:01:19.780Z,-3.00
2019-02-08T23:03:47.731Z,-3.00
2019-02-08T23:06:15.622Z,-3.00
2019-02-08T23:08:43.392Z,-3.00
2019-02-08T23:11:11.187Z,-3.00
2019-02-08T23:13:38.952Z,-3.00
2019-02-08T23:16:06.728Z,-3.10
2019-02-08T23:18:34.612Z,-3.10
2019-02-08T23:21:02.555Z,-3.10
2019-02-08T23:23:31.861Z,-3.10
2019-02-08T23:26:11.918Z,-3.10
2019-02-08T23:28:44.927Z,-3.20
2019-02-08T23:31:14.433Z,-3.30
2019-02-08T23:33:42.266Z,-3.20
2019-02-08T23:36:10.710Z,-3.20
2019-02-08T23:38:38.308Z,-3.30
2019-02-08T23:41:05.901Z,-3.20
2019-02-08T23:43:34.315Z,-3.20
2019-02-08T23:46:03.437Z,-3.10
2019-02-08T23:48:32.193Z,-3.10
2019-02-08T23:51:00.056Z,-3.00
2019-02-08T23:53:28.609Z,-3.00
2019-02-08T23:55:56.306Z,-3.00
2019-02-08T23:58:23.933Z,-2.90
